Time;durP1;ratioP1;P1;durP2;ratioP2;P2;SDS_P1;SDS_P2;PMS_P1;PMS_P2;Temp;Humidity;BMP_temperature;BMP_pressure;BME280_temperature;BME280_humidity;BME280_pressure;Samples;Min_cycle;Max_cycle;Signal;HPM_P1;HPM_P2
2021/09/01 00:00:44;;;;;;;7.43;4.35;;;;;;;21.03;100.00;100997.94;4882355;29;20041;-66
2021/09/01 00:03:30;;;;;;;6.47;4.20;;;;;;;21.25;100.00;100994.91;4882575;29;20033;-66
2021/09/01 00:06:15;;;;;;;8.00;4.38;;;;;;;21.42;100.00;100992.16;4881329;29;20061;-66
2021/09/01 00:09:03;;;;;;;6.15;4.28;;;;;;;20.99;100.00;100988.41;4880909;29;20029;-66
2021/09/01 00:11:49;;;;;;;5.78;4.18;;;;;;;21.61;100.00;100991.00;4868549;29;20035;-66
2021/09/01 00:14:35;;;;;;;5.78;4.47;;;;;;;21.58;100.00;100993.00;4881451;29;20028;-66
2021/09/01 00:17:21;;;;;;;6.13;4.40;;;;;;;21.32;100.00;100991.81;4868517;29;20033;-66
2021/09/01 00:20:09;;;;;;;5.22;4.50;;;;;;;21.55;100.00;100996.69;4882252;29;20033;-65
2021/09/01 00:22:55;;;;;;;5.07;4.25;;;;;;;21.49;100.00;100998.81;4868680;29;20064;-65
2021/09/01 00:25:44;;;;;;;6.95;4.85;;;;;;;21.17;100.00;100998.00;4882622;29;20037;-65
2021/09/01 00:28:29;;;;;;;5.30;4.60;;;;;;;21.16;100.00;100996.31;4868605;29;20075;-66
2021/09/01 00:31:15;;;;;;;7.10;4.60;;;;;;;21.34;100.00;100995.25;4882463;29;20534;-65
2021/09/01 00:34:01;;;;;;;9.43;4.82;;;;;;;20.65;100.00;100996.47;4880652;29;20370;-66
2021/09/01 00:36:47;;;;;;;5.75;4.90;;;;;;;20.56;100.00;101001.44;4868725;29;20028;-66
2021/09/01 00:39:33;;;;;;;7.75;4.68;;;;;;;20.89;100.00;101002.28;4881000;29;20040;-67
2021/09/01 00:42:18;;;;;;;8.13;5.07;;;;;;;20.63;100.00;101008.16;4880686;29;20033;-66
2021/09/01 00:45:05;;;;;;;6.28;5.18;;;;;;;20.56;100.00;101014.75;4880290;29;20028;-66
2021/09/01 00:47:51;;;;;;;8.15;5.00;;;;;;;20.47;100.00;101004.59;4880878;29;20201;-65
2021/09/01 00:50:37;;;;;;;5.35;4.63;;;;;;;20.41;100.00;100999.63;4880839;29;20029;-65
2021/09/01 00:53:26;;;;;;;5.90;5.30;;;;;;;20.11;100.00;100999.44;4880257;29;20037;-66
2021/09/01 00:56:22;;;;;;;6.80;4.78;;;;;;;20.03;100.00;101000.72;4880635;29;20021;-66
2021/09/01 00:59:09;;;;;;;7.78;5.20;;;;;;;20.23;100.00;101003.22;4868135;29;20093;-66
2021/09/01 01:02:02;;;;;;;6.60;5.45;;;;;;;20.56;100.00;101010.28;4880679;29;20025;-66
2021/09/01 01:04:48;;;;;;;9.10;5.22;;;;;;;20.53;100.00;101012.28;4880360;29;20063;-66
2021/09/01 01:07:33;;;;;;;6.45;5.50;;;;;;;20.63;100.00;101013.47;4880715;29;20029;-65
2021/09/01 01:10:19;;;;;;;7.25;5.47;;;;;;;20.23;100.00;101012.09;4880010;29;20041;-65
2021/09/01 01:13:09;;;;;;;8.85;5.45;;;;;;;20.56;100.00;101010.28;4868627;29;20451;-66
2021/09/01 01:15:55;;;;;;;8.32;6.13;;;;;;;20.06;100.00;101003.22;4880134;29;20466;-65
2021/09/01 01:18:45;;;;;;;7.70;5.18;;;;;;;20.50;100.00;101007.09;4879957;29;20029;-66
2021/09/01 01:21:31;;;;;;;8.07;5.65;;;;;;;20.22;100.00;101007.72;4881143;29;20062;-66
2021/09/01 01:24:17;;;;;;;6.97;5.63;;;;;;;20.60;100.00;101003.88;4868035;29;20037;-66
2021/09/01 01:27:03;;;;;;;7.43;5.65;;;;;;;20.57;100.00;101003.19;4886094;29;20147;-65
2021/09/01 01:36:01;;;;;;;8.52;6.03;;;;;;;20.68;100.00;101009.63;5245159;23;20064;-65
2021/09/01 01:38:47;;;;;;;7.68;5.75;;;;;;;20.54;100.00;101006.84;4892760;29;20060;-66
2021/09/01 01:41:36;;;;;;;8.18;5.50;;;;;;;20.20;100.00;100998.06;4905313;29;20377;-66
2021/09/01 01:44:22;;;;;;;7.95;5.88;;;;;;;20.15;100.00;101006.31;4905728;29;20028;-65
2021/09/01 01:47:07;;;;;;;7.60;5.78;;;;;;;20.54;100.00;100998.84;4905090;29;20033;-65
2021/09/01 01:49:53;;;;;;;7.95;5.97;;;;;;;20.45;100.00;100998.50;4892882;29;20032;-66
2021/09/01 01:52:39;;;;;;;9.05;5.80;;;;;;;20.37;100.00;100995.41;4905241;29;20060;-65
2021/09/01 02:00:35;;;;;;;6.55;5.30;;;;;;;20.25;100.00;100996.88;5509241;23;20056;-66
2021/09/01 02:03:21;;;;;;;8.63;5.53;;;;;;;20.65;100.00;100995.63;4905825;29;20024;-66
2021/09/01 02:06:07;;;;;;;6.20;5.60;;;;;;;20.54;100.00;100993.53;4896777;29;20021;-67
2021/09/01 02:08:53;;;;;;;6.25;5.28;;;;;;;20.71;100.00;100990.84;4872960;29;20446;-66
2021/09/01 02:11:38;;;;;;;11.90;5.88;;;;;;;20.27;100.00;100992.38;4885825;29;20454;-66
2021/09/01 02:14:24;;;;;;;8.20;6.15;;;;;;;20.10;100.00;100992.38;4886656;29;20052;-66
2021/09/01 02:17:10;;;;;;;9.25;5.85;;;;;;;19.97;100.00;100991.25;4887284;29;20043;-66
2021/09/01 02:19:56;;;;;;;9.63;5.55;;;;;;;19.93;100.00;100984.38;4885852;29;20044;-66
2021/09/01 02:22:43;;;;;;;7.60;5.78;;;;;;;19.73;100.00;100987.19;4872275;29;20459;-66
2021/09/01 02:25:29;;;;;;;8.93;6.00;;;;;;;19.86;100.00;100982.97;4885779;29;20040;-66
2021/09/01 02:28:15;;;;;;;7.50;5.90;;;;;;;20.19;100.00;100991.91;4885653;29;20056;-67
2021/09/01 02:31:01;;;;;;;9.25;5.80;;;;;;;20.14;100.00;100991.28;4885806;29;20033;-66
2021/09/01 02:33:46;;;;;;;9.48;5.70;;;;;;;19.97;100.00;100985.94;4887171;29;20024;-66
2021/09/01 02:48:11;;;;;;;9.93;5.57;;;;;;;20.10;100.00;100975.56;5153115;23;20074;-68
2021/09/01 02:50:57;;;;;;;7.20;5.88;;;;;;;19.99;100.00;100977.88;4920345;29;20114;-68
2021/09/01 02:53:43;;;;;;;8.02;5.97;;;;;;;20.38;100.00;100991.78;4920024;29;20055;-68
2021/09/01 02:56:29;;;;;;;8.63;6.53;;;;;;;19.66;100.00;100999.09;4909217;29;20033;-67
2021/09/01 02:59:15;;;;;;;9.02;5.88;;;;;;;19.57;100.00;100999.53;4901430;29;20043;-68
2021/09/01 03:02:00;;;;;;;9.18;5.88;;;;;;;19.72;100.00;101011.22;4887927;29;20032;-67
2021/09/01 03:04:46;;;;;;;8.77;6.30;;;;;;;19.60;100.00;101004.69;4901992;29;20034;-67
2021/09/01 03:11:14;;;;;;;7.88;6.10;;;;;;;19.82;100.00;101008.00;5140028;23;20039;-66
2021/09/01 03:13:59;;;;;;;8.32;6.47;;;;;;;19.67;100.00;100997.28;4887609;29;20052;-66
2021/09/01 03:16:45;;;;;;;7.88;6.72;;;;;;;19.65;100.00;100999.16;4888874;29;20033;-66
2021/09/01 03:19:31;;;;;;;8.45;7.18;;;;;;;20.12;100.00;100995.81;4882093;29;20088;-67
2021/09/01 03:22:17;;;;;;;10.07;7.38;;;;;;;20.11;100.00;101011.84;4869927;29;20036;-65
2021/09/01 03:25:03;;;;;;;8.23;6.55;;;;;;;19.70;100.00;101003.31;4882003;29;20033;-65
2021/09/01 03:27:48;;;;;;;7.25;6.55;;;;;;;19.93;100.00;101007.47;4882110;29;20119;-66
2021/09/01 03:30:34;;;;;;;8.80;6.50;;;;;;;19.83;100.00;101004.41;4883421;29;20083;-66
2021/09/01 03:33:20;;;;;;;9.02;7.25;;;;;;;19.98;100.00;101014.28;4881846;29;20036;-66
2021/09/01 03:36:06;;;;;;;8.20;7.40;;;;;;;19.96;100.00;101009.94;4870177;29;20451;-66
2021/09/01 03:38:52;;;;;;;9.13;7.35;;;;;;;19.96;100.00;101020.56;4882652;29;20037;-66
2021/09/01 03:41:38;;;;;;;11.02;7.45;;;;;;;19.91;100.00;101014.66;4881517;29;20041;-65
2021/09/01 03:44:24;;;;;;;8.32;7.53;;;;;;;20.35;100.00;101027.41;4881643;29;20096;-66
2021/09/01 03:47:09;;;;;;;8.38;7.57;;;;;;;20.24;100.00;101035.09;4881266;29;20025;-66
2021/09/01 03:49:55;;;;;;;8.50;7.65;;;;;;;20.05;100.00;101031.63;4869815;29;20115;-66
2021/09/01 03:52:41;;;;;;;9.20;7.75;;;;;;;20.05;100.00;101030.78;4881194;29;20041;-65
2021/09/01 03:55:27;;;;;;;8.00;7.30;;;;;;;20.05;100.00;101028.13;4882919;29;20522;-67
2021/09/01 03:58:13;;;;;;;8.75;7.85;;;;;;;20.35;100.00;101038.06;4881277;29;20061;-66
2021/09/01 04:00:59;;;;;;;9.43;7.13;;;;;;;20.49;100.00;101034.69;4881624;29;20380;-65
2021/09/01 04:03:45;;;;;;;8.55;7.65;;;;;;;20.05;100.00;101031.63;4883084;29;20029;-66
2021/09/01 04:06:31;;;;;;;8.45;7.57;;;;;;;20.42;100.00;101041.25;4881711;29;20025;-66
2021/09/01 04:09:17;;;;;;;8.55;7.75;;;;;;;20.11;100.00;101031.34;4881094;29;20112;-66
2021/09/01 04:12:03;;;;;;;8.48;7.57;;;;;;;20.05;100.00;101026.28;4880968;29;20057;-66
2021/09/01 04:14:49;;;;;;;10.13;8.40;;;;;;;20.21;100.00;101027.25;4881290;29;20033;-65
2021/09/01 04:17:34;;;;;;;9.48;7.35;;;;;;;20.10;100.00;101036.75;4879659;29;20029;-66
2021/09/01 04:20:20;;;;;;;8.73;7.82;;;;;;;20.11;100.00;101039.34;4881056;29;20096;-66
2021/09/01 04:23:06;;;;;;;8.10;7.40;;;;;;;20.29;100.00;101034.88;4880925;29;20037;-66
2021/09/01 04:25:52;;;;;;;9.60;7.70;;;;;;;20.15;100.00;101034.69;4882849;29;20347;-66
2021/09/01 04:28:38;;;;;;;8.98;7.40;;;;;;;19.87;100.00;101042.34;4881109;29;20458;-66
2021/09/01 04:31:24;;;;;;;8.85;7.88;;;;;;;19.99;100.00;101039.06;4880705;29;20040;-66
2021/09/01 04:34:09;;;;;;;9.45;8.30;;;;;;;20.12;100.00;101049.03;4880578;29;20043;-66
2021/09/01 04:39:30;;;;;;;10.00;8.02;;;;;;;20.14;100.00;101052.50;5192764;23;20052;-66
2021/09/01 04:42:16;;;;;;;9.05;8.15;;;;;;;20.08;100.00;101042.09;4899830;29;20043;-65
2021/09/01 04:45:03;;;;;;;8.98;8.13;;;;;;;20.32;100.00;101046.19;4900552;29;20048;-66
2021/09/01 04:47:48;;;;;;;10.40;8.48;;;;;;;20.49;100.00;101048.81;4868318;29;20045;-65
2021/09/01 04:50:34;;;;;;;9.25;8.07;;;;;;;20.65;100.00;101043.56;4881618;29;20085;-66
2021/09/01 04:53:20;;;;;;;10.48;8.40;;;;;;;20.02;100.00;101041.56;4881510;29;20036;-66
2021/09/01 04:56:06;;;;;;;8.70;7.82;;;;;;;19.89;100.00;101036.00;4880559;29;20123;-66
2021/09/01 05:08:29;;;;;;;13.73;7.93;;;;;;;20.50;100.00;101055.03;5042414;23;20060;-66
2021/09/01 05:11:15;;;;;;;12.32;8.73;;;;;;;20.58;100.00;101047.50;4917488;29;20048;-66
2021/09/01 05:14:00;;;;;;;8.70;7.90;;;;;;;20.32;100.00;101056.84;4918291;29;20024;-66
2021/09/01 05:16:46;;;;;;;9.35;8.50;;;;;;;20.59;100.00;101047.41;4904349;29;20454;-66
2021/09/01 05:19:32;;;;;;;8.95;8.10;;;;;;;20.74;100.00;101049.22;4899457;29;20067;-66
2021/09/01 05:22:25;;;;;;;9.18;8.27;;;;;;;20.60;100.00;101045.59;4898825;29;20029;-66
2021/09/01 05:25:14;;;;;;;10.95;8.38;;;;;;;20.62;100.00;101049.06;4899783;29;20037;-66
2021/09/01 05:28:03;;;;;;;9.63;8.73;;;;;;;20.90;100.00;101052.78;4886613;29;20410;-66
2021/09/01 05:30:51;;;;;;;10.88;8.88;;;;;;;20.97;100.00;101051.56;4899508;29;20052;-66
2021/09/01 05:33:38;;;;;;;12.85;9.43;;;;;;;20.36;100.00;101047.75;4899678;29;20052;-66
2021/09/01 05:36:24;;;;;;;10.43;8.63;;;;;;;20.70;100.00;101046.84;4900377;29;20467;-66
2021/09/01 05:39:11;;;;;;;9.73;8.50;;;;;;;21.30;100.00;101041.69;4899185;29;20040;-66
2021/09/01 05:41:57;;;;;;;10.40;8.80;;;;;;;21.27;100.00;101055.19;4886670;29;20029;-66
2021/09/01 05:44:43;;;;;;;15.63;8.88;;;;;;;21.22;100.00;101051.91;4899490;29;20028;-65
2021/09/01 05:51:11;;;;;;;10.10;8.88;;;;;;;20.96;100.00;101052.50;4900108;29;20122;-66
2021/09/01 05:53:57;;;;;;;10.07;8.93;;;;;;;21.24;100.00;101044.69;4900281;29;20112;-66
2021/09/01 05:56:48;;;;;;;11.38;9.43;;;;;;;21.24;100.00;101036.72;4886372;29;20055;-66
2021/09/01 06:00:02;;;;;;;11.73;9.02;;;;;;;21.70;100.00;101043.81;4898728;29;20055;-66
2021/09/01 06:02:58;;;;;;;12.45;9.43;;;;;;;21.50;100.00;101030.75;4900831;29;20060;-67
2021/09/01 06:06:14;;;;;;;9.85;8.85;;;;;;;21.64;100.00;101033.50;4899953;29;20036;-68
2021/09/01 06:09:00;;;;;;;12.63;9.82;;;;;;;21.54;100.00;101034.13;4880587;29;20077;-67
2021/09/01 06:11:51;;;;;;;10.90;9.75;;;;;;;21.85;100.00;101040.28;4881710;29;20478;-66
2021/09/01 06:14:37;;;;;;;10.77;9.55;;;;;;;22.17;100.00;101039.22;4883796;29;20028;-65
2021/09/01 06:17:23;;;;;;;10.73;9.30;;;;;;;22.10;100.00;101029.84;4884485;29;20037;-67
2021/09/01 06:20:10;;;;;;;10.30;9.25;;;;;;;22.26;100.00;101033.31;4883595;29;20033;-68
2021/09/01 06:22:56;;;;;;;10.90;9.75;;;;;;;22.27;100.00;101029.69;4882936;29;20035;-66
2021/09/01 06:25:45;;;;;;;12.30;9.65;;;;;;;22.03;100.00;101038.34;4884381;29;20041;-66
2021/09/01 06:28:31;;;;;;;9.80;8.80;;;;;;;22.06;100.00;101031.00;4883325;29;20068;-66
2021/09/01 06:31:16;;;;;;;12.02;9.45;;;;;;;22.15;100.00;101033.09;4870256;29;20033;-66
2021/09/01 06:34:02;;;;;;;10.32;9.20;;;;;;;22.18;100.00;101029.41;4882586;29;20033;-66
2021/09/01 06:37:10;;;;;;;11.90;8.48;;;;;;;22.30;100.00;101028.69;4882998;29;20037;-67
2021/09/01 06:40:07;;;;;;;11.25;9.35;;;;;;;22.26;100.00;101027.97;4882758;29;20459;-66
2021/09/01 06:42:53;;;;;;;10.15;8.30;;;;;;;22.38;100.00;101021.91;4883389;29;20037;-66
2021/09/01 06:45:41;;;;;;;10.43;8.20;;;;;;;22.74;100.00;101024.13;4882803;29;20406;-66
2021/09/01 06:48:26;;;;;;;12.38;8.57;;;;;;;22.69;100.00;101023.56;4882537;29;20029;-66
2021/09/01 06:51:12;;;;;;;10.07;7.95;;;;;;;22.98;100.00;101017.25;4882539;29;20033;-66
2021/09/01 06:53:58;;;;;;;8.68;7.88;;;;;;;22.87;100.00;101019.75;4882780;29;20039;-66
2021/09/01 06:56:44;;;;;;;8.23;7.38;;;;;;;23.14;100.00;101020.66;4884473;29;20062;-66
2021/09/01 06:59:30;;;;;;;8.38;7.57;;;;;;;22.94;100.00;101016.59;4882241;29;20032;-68
2021/09/01 07:02:16;;;;;;;8.77;7.88;;;;;;;23.14;100.00;101017.97;4882623;29;20382;-68
2021/09/01 07:05:02;;;;;;;9.40;7.50;;;;;;;23.51;100.00;101008.47;4882116;29;20033;-67
2021/09/01 07:07:48;;;;;;;7.72;6.95;;;;;;;23.60;100.00;101006.03;4893564;29;20109;-67
2021/09/01 07:10:34;;;;;;;8.07;6.65;;;;;;;23.79;100.00;101006.50;4901726;29;20060;-68
2021/09/01 07:17:02;;;;;;;9.23;5.70;;;;;;;23.91;96.67;101004.84;4902184;29;20501;-68
2021/09/01 07:20:05;;;;;;;5.63;5.03;;;;;;;24.24;93.87;101010.59;4888806;29;20037;-67
2021/09/01 07:23:31;;;;;;;8.32;6.20;;;;;;;24.57;93.69;101006.41;4888020;29;20096;-68
2021/09/01 07:26:17;;;;;;;9.00;5.60;;;;;;;24.63;91.09;101011.34;4902667;29;20513;-66
2021/09/01 07:29:03;;;;;;;10.20;4.22;;;;;;;24.33;86.78;101001.91;4901079;29;20028;-66
2021/09/01 07:31:52;;;;;;;7.75;3.33;;;;;;;24.64;83.39;101006.88;4902024;29;20025;-68
2021/09/01 07:34:37;;;;;;;5.68;2.90;;;;;;;24.55;79.43;101002.13;4903015;29;20032;-68
2021/09/01 07:37:23;;;;;;;5.03;2.88;;;;;;;24.91;76.91;100999.53;5158934;24;20053;-67
2021/09/01 07:40:20;;;;;;;4.38;3.05;;;;;;;25.09;75.98;101011.59;4901596;29;20370;-69
2021/09/01 07:43:06;;;;;;;13.20;3.30;;;;;;;25.06;75.35;100998.41;4900827;29;20032;-68
2021/09/01 07:45:52;;;;;;;7.00;2.70;;;;;;;24.94;74.10;101001.97;4895754;29;20029;-66
2021/09/01 07:48:38;;;;;;;7.50;2.80;;;;;;;25.09;74.01;101001.75;4882499;29;20043;-67
2021/09/01 07:51:24;;;;;;;4.10;2.47;;;;;;;25.43;70.66;100986.75;4881089;29;20037;-67
2021/09/01 07:54:09;;;;;;;4.45;2.50;;;;;;;25.46;70.11;100994.53;4883040;29;20044;-66
2021/09/01 07:56:55;;;;;;;4.00;2.85;;;;;;;25.39;68.70;100990.63;4882433;29;20120;-66
2021/09/01 07:59:41;;;;;;;7.75;2.20;;;;;;;25.63;66.49;100988.81;4881339;29;20043;-66
2021/09/01 08:02:27;;;;;;;5.32;2.30;;;;;;;25.55;66.11;100981.31;4882700;29;20112;-66
2021/09/01 08:05:12;;;;;;;3.15;2.15;;;;;;;25.98;64.83;100989.66;4882132;29;20033;-66
2021/09/01 08:07:58;;;;;;;4.32;2.30;;;;;;;26.13;63.78;100986.69;4882132;29;20033;-66
2021/09/01 08:10:44;;;;;;;2.97;2.20;;;;;;;26.31;62.02;100985.22;4881621;29;20355;-66
2021/09/01 08:13:30;;;;;;;2.97;2.67;;;;;;;26.62;62.54;100997.13;4882839;29;20041;-66
2021/09/01 08:16:16;;;;;;;13.65;2.40;;;;;;;26.07;62.70;100987.13;4882913;29;20028;-67
2021/09/01 08:19:02;;;;;;;6.13;2.35;;;;;;;25.97;64.93;100988.84;4882032;29;20040;-67
2021/09/01 08:21:48;;;;;;;4.45;2.38;;;;;;;26.41;63.28;100982.69;4881250;29;20064;-66
2021/09/01 08:24:34;;;;;;;3.80;2.40;;;;;;;26.66;61.92;100985.16;4881925;29;20506;-67
2021/09/01 08:27:20;;;;;;;3.70;2.30;;;;;;;26.83;59.67;100982.84;4882628;29;20032;-67
2021/09/01 08:30:08;;;;;;;4.07;2.45;;;;;;;27.09;58.66;100973.50;4881471;29;20057;-67
2021/09/01 08:32:54;;;;;;;6.10;2.80;;;;;;;26.63;61.48;100980.03;4882469;29;20048;-67
2021/09/01 08:35:39;;;;;;;5.38;3.25;;;;;;;27.17;60.72;100980.97;4881163;29;20028;-67
2021/09/01 08:38:25;;;;;;;5.43;3.55;;;;;;;27.32;55.03;100968.94;4869110;29;20366;-66
2021/09/01 08:41:11;;;;;;;3.88;2.03;;;;;;;26.66;55.61;100977.09;4882177;29;20037;-65
2021/09/01 08:44:00;;;;;;;11.95;2.10;;;;;;;26.40;56.33;100978.28;4881110;29;20029;-66
2021/09/01 08:46:49;;;;;;;7.05;1.83;;;;;;;26.33;57.86;100969.00;4868335;29;20033;-66
2021/09/01 08:49:35;;;;;;;5.28;1.95;;;;;;;26.79;56.31;100975.13;4880801;29;20061;-66
2021/09/01 08:52:21;;;;;;;5.38;1.88;;;;;;;26.93;54.33;100972.19;4867723;29;20394;-66
2021/09/01 08:55:12;;;;;;;5.55;1.95;;;;;;;27.01;54.36;100954.44;4881369;29;20029;-66
2021/09/01 08:57:58;;;;;;;5.72;1.80;;;;;;;26.98;53.10;100962.78;4867412;29;20558;-66
2021/09/01 09:00:44;;;;;;;4.72;1.73;;;;;;;27.27;52.80;100958.59;4867844;29;20037;-66
2021/09/01 09:03:30;;;;;;;5.57;1.83;;;;;;;27.75;51.92;100958.13;4868552;29;20522;-66
2021/09/01 09:06:15;;;;;;;3.63;1.60;;;;;;;27.54;51.73;100947.34;4867060;29;20374;-66
2021/09/01 09:09:12;;;;;;;4.85;1.63;;;;;;;27.34;51.30;100948.16;4880068;29;20047;-66
2021/09/01 09:12:00;;;;;;;10.23;2.30;;;;;;;27.67;50.88;100956.09;4868359;29;20112;-66
2021/09/01 09:14:48;;;;;;;6.30;1.73;;;;;;;27.80;50.17;100953.22;4881978;29;20032;-66
2021/09/01 09:17:35;;;;;;;4.53;1.70;;;;;;;28.29;49.15;100951.59;4879940;29;20025;-66
2021/09/01 09:20:30;;;;;;;5.15;1.60;;;;;;;28.12;49.43;100957.59;4881726;29;20037;-67
2021/09/01 09:23:29;;;;;;;5.85;1.42;;;;;;;27.23;49.01;100951.75;4866333;29;20048;-67
2021/09/01 09:26:29;;;;;;;8.30;1.30;;;;;;;27.15;48.52;100942.56;4867847;29;20366;-66
2021/09/01 09:29:17;;;;;;;4.88;1.33;;;;;;;27.02;49.36;100936.47;4879430;29;20029;-66
2021/09/01 09:32:07;;;;;;;5.88;1.40;;;;;;;27.40;49.54;100932.34;4868643;29;20434;-66
2021/09/01 09:40:25;;;;;;;1.45;1.10;;;;;;;26.86;48.44;100934.19;5641977;23;20048;-67
2021/09/01 09:43:16;;;;;;;11.13;1.83;;;;;;;27.05;48.30;100925.47;4900124;29;20040;-66
2021/09/01 09:46:06;;;;;;;4.63;1.48;;;;;;;27.22;48.13;100923.13;4892626;29;20097;-67
2021/09/01 09:49:03;;;;;;;5.45;1.77;;;;;;;27.39;47.86;100900.19;4884433;29;20398;-67
2021/09/01 09:51:48;;;;;;;6.70;1.92;;;;;;;27.31;47.75;100913.44;4883995;29;20032;-67
2021/09/01 09:54:34;;;;;;;4.20;1.30;;;;;;;27.66;47.71;100908.63;4883369;29;20029;-66
2021/09/01 09:57:20;;;;;;;6.32;1.60;;;;;;;27.58;47.81;100904.88;4883507;29;20407;-67
2021/09/01 10:00:06;;;;;;;6.93;1.40;;;;;;;28.04;47.09;100906.19;4871499;29;20101;-66
2021/09/01 10:02:52;;;;;;;7.28;1.40;;;;;;;27.99;45.90;100899.50;4883855;29;20040;-67
2021/09/01 10:05:38;;;;;;;6.75;1.60;;;;;;;28.14;45.60;100893.66;4884337;29;20429;-65
2021/09/01 10:08:25;;;;;;;5.63;1.40;;;;;;;27.92;45.58;100901.88;4883261;29;20120;-66
2021/09/01 10:11:13;;;;;;;4.30;1.48;;;;;;;27.84;45.26;100904.38;4884628;29;20025;-65
2021/09/01 10:13:59;;;;;;;2.00;1.27;;;;;;;27.97;46.09;100896.97;4883441;29;20059;-66
2021/09/01 10:17:07;;;;;;;10.20;1.70;;;;;;;27.97;45.71;100891.59;4883041;29;20037;-66
2021/09/01 10:19:54;;;;;;;3.92;1.40;;;;;;;27.80;45.75;100897.50;4883552;29;20037;-65
2021/09/01 10:22:40;;;;;;;4.20;1.35;;;;;;;28.21;45.74;100899.34;4882836;29;20047;-66
2021/09/01 10:25:45;;;;;;;7.93;1.48;;;;;;;27.97;46.03;100894.28;4883250;29;20029;-66
2021/09/01 10:28:35;;;;;;;7.90;1.90;;;;;;;27.79;46.81;100895.81;4869838;29;20025;-67
2021/09/01 10:31:23;;;;;;;6.35;1.70;;;;;;;27.89;47.33;100904.00;4870949;29;20033;-65
2021/09/01 10:34:22;;;;;;;5.28;1.88;;;;;;;27.88;46.21;100896.91;4871293;29;20021;-67
2021/09/01 10:37:07;;;;;;;4.97;1.60;;;;;;;27.71;47.24;100898.31;4883393;29;20037;-67
2021/09/01 10:39:53;;;;;;;6.95;1.95;;;;;;;27.37;48.30;100899.47;4882529;29;20063;-66
2021/09/01 10:42:43;;;;;;;6.82;1.40;;;;;;;27.73;47.26;100895.50;4882939;29;20154;-65
2021/09/01 10:45:33;;;;;;;9.73;1.70;;;;;;;27.32;47.34;100897.16;4882539;29;20044;-66
2021/09/01 10:48:18;;;;;;;5.25;1.50;;;;;;;27.48;47.97;100886.81;4882870;29;20052;-66
2021/09/01 10:51:24;;;;;;;10.05;2.03;;;;;;;28.03;48.36;100893.72;4869682;29;20065;-66
2021/09/01 10:54:28;;;;;;;3.40;1.52;;;;;;;28.31;48.50;100895.72;4882440;29;20100;-65
2021/09/01 10:57:28;;;;;;;20.02;2.58;;;;;;;27.56;49.50;100871.84;4881506;29;20467;-65
2021/09/01 11:00:16;;;;;;;15.63;2.25;;;;;;;27.62;48.99;100892.84;4883588;29;20478;-65
2021/09/01 11:03:03;;;;;;;9.70;2.03;;;;;;;27.71;47.89;100898.31;4883909;29;20429;-65
2021/09/01 11:05:49;;;;;;;2.78;1.60;;;;;;;27.93;47.50;100894.66;4882294;29;20088;-66
2021/09/01 11:08:35;;;;;;;8.13;2.00;;;;;;;28.35;47.51;100872.03;4882777;29;20349;-66
2021/09/01 11:11:24;;;;;;;11.05;2.33;;;;;;;28.21;48.01;100883.19;4883730;29;20029;-66
2021/09/01 11:14:30;;;;;;;14.25;2.70;;;;;;;28.05;48.41;100902.53;4882643;29;20448;-65
2021/09/01 11:17:21;;;;;;;9.63;2.70;;;;;;;28.16;48.25;100870.09;4869686;29;20037;-66
2021/09/01 11:20:08;;;;;;;11.43;2.70;;;;;;;28.00;49.26;100868.91;4882557;29;20060;-66
2021/09/01 11:22:55;;;;;;;9.63;2.50;;;;;;;27.81;49.45;100879.53;4882048;29;20033;-66
2021/09/01 11:25:41;;;;;;;11.90;2.63;;;;;;;27.87;49.53;100873.63;4882087;29;20040;-66
2021/09/01 11:28:27;;;;;;;6.88;2.40;;;;;;;28.28;48.89;100876.28;4883646;29;20056;-66
2021/09/01 11:31:21;;;;;;;16.55;2.63;;;;;;;28.47;47.52;100871.84;4883076;29;20029;-66
2021/09/01 11:34:08;;;;;;;8.60;2.50;;;;;;;28.28;47.64;100862.81;4868818;29;20040;-66
2021/09/01 11:36:54;;;;;;;10.25;2.78;;;;;;;28.28;48.07;100855.56;4882520;29;20029;-66
2021/09/01 11:39:47;;;;;;;6.50;2.65;;;;;;;28.21;49.02;100856.25;4883314;29;20033;-66
2021/09/01 11:42:36;;;;;;;6.22;2.50;;;;;;;28.54;48.63;100845.19;4864262;29;20547;-66
2021/09/01 11:45:22;;;;;;;13.23;2.95;;;;;;;27.79;49.86;100841.09;4864580;29;20443;-67
2021/09/01 11:48:08;;;;;;;4.18;2.60;;;;;;;27.74;50.22;100838.81;4864378;29;20025;-66
2021/09/01 11:50:54;;;;;;;4.38;2.40;;;;;;;28.18;49.59;100834.94;4863462;29;20029;-66
2021/09/01 11:53:41;;;;;;;10.73;2.47;;;;;;;28.58;48.08;100841.22;4865261;29;20028;-66
2021/09/01 11:56:30;;;;;;;9.68;2.63;;;;;;;28.13;47.67;100839.91;4864920;29;20434;-66
2021/09/01 11:59:17;;;;;;;3.33;1.92;;;;;;;27.93;48.19;100838.09;4863471;29;20390;-66
2021/09/01 12:02:04;;;;;;;6.53;2.33;;;;;;;28.16;47.93;100843.16;4864019;29;20029;-67
2021/09/01 12:04:51;;;;;;;4.95;2.58;;;;;;;28.13;48.70;100837.19;4865336;29;20031;-66
2021/09/01 12:07:43;;;;;;;12.25;2.90;;;;;;;28.26;48.56;100824.34;4864852;29;20061;-67
2021/09/01 12:10:32;;;;;;;5.95;2.95;;;;;;;28.17;48.69;100834.09;4864998;29;20029;-67
2021/09/01 12:13:41;;;;;;;13.32;2.88;;;;;;;28.27;49.31;100826.91;4865204;29;20025;-67
2021/09/01 12:16:27;;;;;;;13.35;2.90;;;;;;;28.00;49.63;100823.09;4864592;29;20494;-67
2021/09/01 12:19:13;;;;;;;14.68;3.55;;;;;;;28.44;48.83;100810.09;4864098;29;20033;-66
2021/09/01 12:22:03;;;;;;;7.43;3.10;;;;;;;28.20;48.38;100816.81;4863555;29;20041;-67
2021/09/01 12:24:59;;;;;;;9.93;2.50;;;;;;;28.02;48.32;100818.41;4849989;29;20444;-68
2021/09/01 12:28:10;;;;;;;6.20;2.47;;;;;;;27.92;49.02;100815.69;4864103;29;20038;-68
2021/09/01 12:30:56;;;;;;;4.80;2.33;;;;;;;28.34;47.65;100811.91;4863393;29;20044;-68
2021/09/01 12:33:41;;;;;;;15.80;2.55;;;;;;;28.20;48.31;100812.25;4861697;29;20029;-69
2021/09/01 12:36:28;;;;;;;5.22;2.10;;;;;;;28.38;47.47;100807.06;4863950;29;20033;-68
2021/09/01 12:39:16;;;;;;;22.55;3.10;;;;;;;28.14;47.81;100807.44;4864215;29;20037;-68
2021/09/01 12:42:02;;;;;;;10.13;2.50;;;;;;;28.32;47.35;100802.25;4880830;29;20085;-68
2021/09/01 12:44:58;;;;;;;5.32;2.45;;;;;;;28.28;47.52;100807.03;4881454;29;20029;-66
2021/09/01 12:48:00;;;;;;;11.43;2.50;;;;;;;28.82;46.06;100806.63;4881756;29;20041;-68
2021/09/01 12:50:52;;;;;;;6.72;2.22;;;;;;;28.64;46.19;100803.75;4881444;29;20028;-66
2021/09/01 12:53:38;;;;;;;14.95;2.28;;;;;;;28.22;47.92;100807.59;4880657;29;20036;-67
2021/09/01 12:56:25;;;;;;;4.07;2.10;;;;;;;27.93;48.04;100812.03;4998942;24;20080;-67
2021/09/01 12:59:11;;;;;;;5.03;2.22;;;;;;;27.68;47.62;100801.63;4899762;29;20028;-66
2021/09/01 13:01:57;;;;;;;4.82;2.00;;;;;;;27.30;48.82;100804.94;4899987;29;20417;-66
2021/09/01 13:04:43;;;;;;;4.38;2.05;;;;;;;27.33;49.54;100815.44;4900089;29;20402;-66
2021/09/01 13:07:28;;;;;;;8.90;2.20;;;;;;;27.76;48.60;100787.53;4880230;29;20051;-66
2021/09/01 13:10:17;;;;;;;7.60;2.22;;;;;;;27.66;48.66;100808.13;4880775;29;20085;-66
2021/09/01 13:13:02;;;;;;;5.40;2.03;;;;;;;27.31;49.94;100813.84;4880964;29;20036;-66
2021/09/01 13:15:48;;;;;;;3.90;2.30;;;;;;;27.58;50.07;100808.81;4881040;29;20119;-66
2021/09/01 13:18:34;;;;;;;10.20;2.67;;;;;;;27.48;49.80;100807.88;4881363;29;20037;-67
2021/09/01 13:21:20;;;;;;;10.65;2.90;;;;;;;27.87;49.05;100807.16;4881692;29;20442;-67
2021/09/01 13:24:07;;;;;;;7.68;2.78;;;;;;;27.95;49.11;100820.81;4881481;29;20112;-68
2021/09/01 13:26:52;;;;;;;11.88;2.80;;;;;;;28.09;48.69;100808.81;4880714;29;20033;-67
2021/09/01 13:29:38;;;;;;;7.88;2.97;;;;;;;27.74;49.38;100789.47;4881761;29;20520;-66
2021/09/01 13:32:24;;;;;;;10.30;3.10;;;;;;;27.51;50.39;100814.88;4880674;29;20040;-66
2021/09/01 13:35:10;;;;;;;6.18;2.55;;;;;;;27.34;50.08;100806.41;4880788;29;20033;-66
2021/09/01 13:37:56;;;;;;;8.32;2.63;;;;;;;27.33;50.42;100814.59;4881254;29;20049;-66
2021/09/01 13:40:42;;;;;;;7.03;2.47;;;;;;;27.42;49.02;100805.72;4880300;29;20090;-65
2021/09/01 13:43:29;;;;;;;11.88;2.60;;;;;;;27.09;49.46;100814.78;4881095;29;20040;-65
2021/09/01 13:46:15;;;;;;;12.32;2.60;;;;;;;26.99;50.14;100813.00;4880317;29;20033;-65